createdAt,value
2022-12-23T00:00:57.274Z,16.17
2022-12-23T00:03:24.111Z,16.38
2022-12-23T00:05:51.039Z,17.13
2022-12-23T00:08:17.404Z,16.63
2022-12-23T00:10:43.733Z,16.65
2022-12-23T00:13:29.348Z,16.33
2022-12-23T00:16:06.600Z,16.10
2022-12-23T00:18:33.144Z,18.65
2022-12-23T00:21:06.651Z,17.75
2022-12-23T00:23:39.279Z,19.38
2022-12-23T00:28:32.029Z,17.75
2022-12-23T00:31:01.340Z,18.40
2022-12-23T00:33:28.953Z,19.50
2022-12-23T00:35:55.310Z,18.60
2022-12-23T00:38:41.728Z,18.02
2022-12-23T00:41:36.952Z,17.17
2022-12-23T00:44:04.018Z,16.55
2022-12-23T00:46:30.603Z,17.73
2022-12-23T00:49:15.390Z,18.10
2022-12-23T00:51:41.752Z,17.38
2022-12-23T00:54:08.065Z,15.75
2022-12-23T00:56:34.455Z,16.08
2022-12-23T00:59:00.807Z,14.63
2022-12-23T01:01:45.692Z,14.27
2022-12-23T01:04:34.485Z,15.40
2022-12-23T01:07:01.126Z,14.68
2022-12-23T01:09:29.641Z,14.75
2022-12-23T01:11:55.935Z,17.50
2022-12-23T01:14:22.558Z,14.52
2022-12-23T01:16:49.073Z,14.90
2022-12-23T01:19:15.433Z,14.02
2022-12-23T01:21:41.879Z,13.80
2022-12-23T01:24:08.583Z,14.02
2022-12-23T01:26:35.445Z,14.93
2022-12-23T01:29:02.005Z,15.73
2022-12-23T01:31:28.623Z,14.38
2022-12-23T01:33:55.282Z,14.65
2022-12-23T01:36:22.396Z,14.13
2022-12-23T01:38:49.112Z,14.68
2022-12-23T01:41:38.179Z,14.38
2022-12-23T01:44:24.970Z,13.60
2022-12-23T01:46:51.577Z,13.48
2022-12-23T01:49:18.378Z,12.90
2022-12-23T01:51:45.348Z,13.70
2022-12-23T01:54:12.100Z,13.30
2022-12-23T01:56:40.175Z,13.30
2022-12-23T01:59:12.081Z,12.93
2022-12-23T02:01:57.819Z,13.15
2022-12-23T02:04:25.495Z,13.45
2022-12-23T02:07:10.505Z,12.25
2022-12-23T02:09:40.548Z,11.27
2022-12-23T02:12:25.988Z,11.00
2022-12-23T02:15:14.481Z,9.38
2022-12-23T02:17:41.558Z,9.77
2022-12-23T02:20:20.613Z,10.60
2022-12-23T02:23:00.627Z,9.93
2022-12-23T02:25:40.391Z,10.57
2022-12-23T02:28:13.336Z,9.43
2022-12-23T02:30:40.108Z,9.82
2022-12-23T02:33:07.151Z,8.85
2022-12-23T02:35:40.890Z,8.75
2022-12-23T02:38:14.210Z,8.98
2022-12-23T02:40:56.105Z,8.57
2022-12-23T02:43:36.667Z,6.57
2022-12-23T02:46:22.653Z,7.05
2022-12-23T02:48:55.675Z,7.13
2022-12-23T02:51:25.205Z,6.80
2022-12-23T02:53:53.569Z,7.72
2022-12-23T02:56:21.786Z,7.15
2022-12-23T02:58:52.620Z,7.68
2022-12-23T03:01:20.071Z,7.57
2022-12-23T03:03:48.662Z,6.82
2022-12-23T03:06:23.502Z,6.68
2022-12-23T03:08:51.323Z,6.68
2022-12-23T03:11:18.371Z,6.15
2022-12-23T03:14:02.375Z,6.65
2022-12-23T03:16:47.508Z,7.68
2022-12-23T03:19:31.725Z,6.47
2022-12-23T03:22:16.897Z,7.20
2022-12-23T03:24:50.463Z,7.80
2022-12-23T03:27:35.818Z,8.98
2022-12-23T03:30:05.244Z,7.28
2022-12-23T03:32:33.839Z,6.72
2022-12-23T03:35:02.796Z,7.32
2022-12-23T03:37:32.973Z,8.23
2022-12-23T03:40:03.561Z,7.68
2022-12-23T03:42:34.244Z,7.75
2022-12-23T03:45:37.016Z,7.20
2022-12-23T03:47:56.040Z,7.55
2022-12-23T03:50:23.841Z,7.22
2022-12-23T03:52:58.272Z,7.32
2022-12-23T03:55:36.309Z,7.60
2022-12-23T03:58:12.151Z,6.95
2022-12-23T04:00:43.882Z,7.53
2022-12-23T04:03:14.956Z,7.25
2022-12-23T04:05:43.118Z,7.38
2022-12-23T04:08:24.719Z,7.45
2022-12-23T04:10:51.758Z,6.72
2022-12-23T04:13:18.947Z,6.78
2022-12-23T04:15:45.714Z,7.18
2022-12-23T04:18:12.954Z,8.38
2022-12-23T04:20:40.160Z,8.20
2022-12-23T04:23:06.706Z,7.20
2022-12-23T04:25:34.759Z,7.53
2022-12-23T04:28:01.948Z,7.63
2022-12-23T04:30:33.917Z,7.68
2022-12-23T04:33:01.334Z,7.25
2022-12-23T04:35:28.239Z,7.47
2022-12-23T04:37:55.146Z,7.82
2022-12-23T04:40:22.354Z,7.97
2022-12-23T04:42:49.249Z,7.88
2022-12-23T04:45:16.134Z,7.47
2022-12-23T04:47:43.687Z,8.40
2022-12-23T04:50:14.676Z,8.30
2022-12-23T04:52:42.513Z,7.30
2022-12-23T04:55:10.439Z,7.55
2022-12-23T04:57:37.482Z,7.57
2022-12-23T05:00:05.032Z,6.75
2022-12-23T05:02:31.607Z,7.55
2022-12-23T05:04:58.871Z,7.85
2022-12-23T05:07:26.080Z,8.68
2022-12-23T05:09:53.368Z,8.85
2022-12-23T05:12:20.367Z,8.68
2022-12-23T05:14:47.548Z,7.75
2022-12-23T05:17:15.331Z,9.13
2022-12-23T05:19:42.243Z,9.30
2022-12-23T05:22:09.867Z,8.85
2022-12-23T05:24:37.048Z,8.60
2022-12-23T05:27:04.558Z,9.48
2022-12-23T05:29:32.376Z,10.57
2022-12-23T05:31:58.788Z,10.82
2022-12-23T05:34:25.314Z,9.98
2022-12-23T05:36:52.266Z,9.38
2022-12-23T05:39:19.569Z,10.13
2022-12-23T05:41:47.335Z,10.48
2022-12-23T05:44:13.672Z,10.15
2022-12-23T05:46:40.972Z,11.13
2022-12-23T05:49:07.548Z,10.30
2022-12-23T05:51:35.015Z,10.65
2022-12-23T05:54:01.686Z,9.98
2022-12-23T05:56:28.779Z,10.88
2022-12-23T05:58:55.553Z,10.70
2022-12-23T06:01:22.281Z,8.90
2022-12-23T06:03:49.597Z,10.45
2022-12-23T06:06:16.777Z,10.48
2022-12-23T06:08:43.722Z,9.45
2022-12-23T06:11:10.896Z,9.73
2022-12-23T06:13:38.371Z,9.88
2022-12-23T06:16:05.097Z,10.07
2022-12-23T06:18:32.232Z,11.20
2022-12-23T06:21:00.746Z,9.93
2022-12-23T06:23:28.121Z,9.93
2022-12-23T06:26:01.183Z,10.65
2022-12-23T06:28:29.727Z,11.07
2022-12-23T06:30:57.261Z,10.40
2022-12-23T06:33:25.237Z,9.98
2022-12-23T06:35:51.948Z,9.50
2022-12-23T06:38:18.971Z,10.32
2022-12-23T06:40:45.331Z,10.15
2022-12-23T06:43:13.371Z,9.85
2022-12-23T06:45:39.918Z,9.23
2022-12-23T06:48:06.683Z,8.70
2022-12-23T06:50:33.040Z,10.00
2022-12-23T06:52:59.660Z,10.85
2022-12-23T06:55:27.005Z,9.70
2022-12-23T06:57:54.200Z,9.93
2022-12-23T07:00:23.310Z,9.00
2022-12-23T07:02:50.143Z,10.43
2022-12-23T07:05:17.343Z,10.35
2022-12-23T07:07:44.863Z,9.40
2022-12-23T07:10:11.671Z,9.65
2022-12-23T07:12:38.170Z,9.15
2022-12-23T07:15:05.404Z,9.90
2022-12-23T07:17:32.868Z,9.27
2022-12-23T07:19:59.178Z,9.50
2022-12-23T07:22:25.926Z,10.02
2022-12-23T07:24:52.242Z,9.93
2022-12-23T07:27:18.552Z,9.85
2022-12-23T07:29:44.939Z,11.32
2022-12-23T07:32:11.358Z,10.25
2022-12-23T07:34:37.790Z,9.57
2022-12-23T07:37:04.154Z,10.77
2022-12-23T07:39:30.612Z,11.15
2022-12-23T07:42:25.056Z,10.93
2022-12-23T07:44:43.235Z,10.93
2022-12-23T07:47:11.139Z,11.45
2022-12-23T07:49:37.638Z,10.82
2022-12-23T07:52:04.029Z,11.07
2022-12-23T07:54:30.409Z,11.68
2022-12-23T07:56:58.094Z,11.82
2022-12-23T07:59:27.599Z,12.35
2022-12-23T08:01:54.074Z,11.60
2022-12-23T08:04:20.666Z,12.25
2022-12-23T08:06:47.119Z,12.25
2022-12-23T08:09:13.433Z,12.15
2022-12-23T08:11:39.718Z,11.25
2022-12-23T08:14:06.878Z,14.07
2022-12-23T08:16:37.883Z,11.75
2022-12-23T08:19:07.999Z,12.18
2022-12-23T08:21:34.343Z,11.93
2022-12-23T08:24:00.701Z,12.70
2022-12-23T08:26:27.298Z,12.10
2022-12-23T08:28:53.653Z,12.35
2022-12-23T08:31:21.713Z,12.55
2022-12-23T08:33:49.804Z,13.52
2022-12-23T08:36:22.788Z,13.43
2022-12-23T08:38:50.533Z,13.43
2022-12-23T08:41:18.677Z,13.43
2022-12-23T08:43:45.394Z,15.65
2022-12-23T08:46:11.872Z,14.48
2022-12-23T08:48:39.649Z,14.73
2022-12-23T08:51:10.760Z,15.02
2022-12-23T08:53:37.611Z,16.20
2022-12-23T08:56:09.317Z,16.10
2022-12-23T08:58:39.341Z,15.73
2022-12-23T09:01:06.883Z,15.80
2022-12-23T09:03:33.612Z,15.43
2022-12-23T09:06:03.595Z,15.80
2022-12-23T09:08:29.911Z,15.63
2022-12-23T09:10:56.281Z,15.07
2022-12-23T09:13:31.007Z,15.07
2022-12-23T09:16:01.386Z,15.88
2022-12-23T09:18:27.776Z,15.38
2022-12-23T09:21:20.086Z,15.55
2022-12-23T09:23:46.897Z,14.35
2022-12-23T09:26:17.837Z,15.88
2022-12-23T09:28:44.144Z,15.57
2022-12-23T09:31:11.233Z,15.93
2022-12-23T09:33:37.993Z,16.40
2022-12-23T09:36:04.656Z,17.25
2022-12-23T09:38:31.321Z,16.63
2022-12-23T09:41:06.475Z,17.17
2022-12-23T09:43:50.888Z,15.23
2022-12-23T09:46:25.559Z,15.45
2022-12-23T09:49:05.870Z,14.95
2022-12-23T09:51:32.758Z,16.13
2022-12-23T09:54:03.283Z,14.98
2022-12-23T09:56:48.254Z,12.95
2022-12-23T09:59:19.970Z,13.80
2022-12-23T10:01:46.356Z,13.23
2022-12-23T10:04:21.852Z,15.23
2022-12-23T10:06:56.230Z,15.43
2022-12-23T10:09:24.330Z,13.60
2022-12-23T10:11:51.870Z,15.27
2022-12-23T10:14:21.211Z,15.00
2022-12-23T10:17:20.056Z,15.30
2022-12-23T10:19:47.987Z,15.02
2022-12-23T10:22:14.325Z,13.48
2022-12-23T10:24:42.747Z,13.82
2022-12-23T10:27:27.680Z,14.68
2022-12-23T10:29:54.086Z,14.40
2022-12-23T10:32:35.777Z,13.40
2022-12-23T10:35:05.224Z,11.15
2022-12-23T10:37:37.669Z,11.80
2022-12-23T10:40:03.978Z,11.52
2022-12-23T10:42:36.251Z,10.43
2022-12-23T10:45:08.083Z,10.27
2022-12-23T10:48:01.954Z,10.95
2022-12-23T10:50:34.252Z,11.90
2022-12-23T10:53:02.503Z,12.40
2022-12-23T10:55:34.100Z,13.00
2022-12-23T10:58:19.381Z,13.55
2022-12-23T11:00:49.233Z,12.60
2022-12-23T11:03:18.058Z,14.90
2022-12-23T11:05:45.578Z,14.60
2022-12-23T11:08:12.181Z,14.38
2022-12-23T11:10:39.165Z,16.30
2022-12-23T11:13:05.501Z,15.00
2022-12-23T11:15:41.507Z,16.27
2022-12-23T11:18:13.982Z,17.52
2022-12-23T11:20:41.231Z,18.40
2022-12-23T11:23:23.779Z,19.45
2022-12-23T11:25:59.162Z,18.95
2022-12-23T11:28:25.697Z,20.35
2022-12-23T11:31:14.303Z,22.17
2022-12-23T11:33:45.754Z,23.92
2022-12-23T11:36:12.041Z,24.30
2022-12-23T11:38:47.920Z,24.15
2022-12-23T11:41:18.142Z,24.42
2022-12-23T11:43:47.758Z,25.95
2022-12-23T11:46:33.281Z,25.03
2022-12-23T11:49:06.912Z,24.77
2022-12-23T11:51:33.388Z,25.95
2022-12-23T11:54:01.179Z,28.05
2022-12-23T11:56:28.517Z,25.42
2022-12-23T11:58:59.794Z,24.08
2022-12-23T12:01:26.313Z,24.92
2022-12-23T12:03:59.380Z,26.73
2022-12-23T12:06:26.723Z,23.70
2022-12-23T12:08:55.638Z,24.50
2022-12-23T12:11:25.790Z,24.20
2022-12-23T12:14:06.344Z,23.38
2022-12-23T12:16:51.690Z,22.52
2022-12-23T12:19:25.142Z,25.35
2022-12-23T12:21:53.644Z,21.17
2022-12-23T12:24:26.129Z,19.15
2022-12-23T12:26:53.741Z,18.58
2022-12-23T12:29:36.507Z,20.25
2022-12-23T12:32:03.851Z,18.42
2022-12-23T12:34:33.782Z,17.75
2022-12-23T12:37:04.308Z,15.60
2022-12-23T12:39:34.310Z,16.63
2022-12-23T12:42:05.739Z,16.58
2022-12-23T12:44:41.156Z,16.65
2022-12-23T12:47:44.591Z,17.85
2022-12-23T12:50:06.723Z,17.58
2022-12-23T12:52:39.046Z,17.13
2022-12-23T12:55:25.798Z,15.82
2022-12-23T12:57:52.262Z,15.63
2022-12-23T13:00:20.196Z,15.30
2022-12-23T13:02:49.668Z,15.50
2022-12-23T13:05:21.273Z,16.08
2022-12-23T13:08:06.160Z,16.25
2022-12-23T13:10:33.041Z,15.45
2022-12-23T13:13:18.545Z,16.05
2022-12-23T13:15:44.818Z,15.70
2022-12-23T13:18:19.289Z,16.42
2022-12-23T13:20:54.046Z,15.98
2022-12-23T13:23:45.156Z,15.85
2022-12-23T13:26:24.527Z,15.68
2022-12-23T13:28:51.333Z,16.42
2022-12-23T13:31:30.386Z,15.02
2022-12-23T13:34:05.444Z,15.85
2022-12-23T13:36:42.175Z,15.43
2022-12-23T13:39:11.570Z,14.98
2022-12-23T13:41:45.843Z,14.20
2022-12-23T13:44:15.475Z,14.90
2022-12-23T13:47:00.674Z,15.27
2022-12-23T13:49:27.692Z,14.50
2022-12-23T13:52:02.806Z,15.30
2022-12-23T13:54:41.874Z,15.32
2022-12-23T13:57:17.698Z,14.20
2022-12-23T13:59:59.752Z,13.07
2022-12-23T14:02:37.331Z,14.20
2022-12-23T14:05:04.750Z,16.52
2022-12-23T14:07:32.590Z,18.60
2022-12-23T14:10:17.986Z,19.40
2022-12-23T14:12:44.323Z,16.73
2022-12-23T14:15:10.632Z,14.55
2022-12-23T14:17:53.418Z,14.48
2022-12-23T14:20:49.195Z,14.50
2022-12-23T14:23:27.270Z,15.32
2022-12-23T14:26:11.329Z,13.98
2022-12-23T14:29:00.715Z,14.25
2022-12-23T14:31:28.550Z,14.05
2022-12-23T14:34:01.869Z,15.45
2022-12-23T14:36:28.635Z,14.25
2022-12-23T14:39:13.200Z,13.63
2022-12-23T14:41:47.935Z,13.15
2022-12-23T14:44:21.549Z,12.55
2022-12-23T14:46:52.450Z,13.50
2022-12-23T14:49:40.098Z,12.93
2022-12-23T14:52:25.855Z,11.95
2022-12-23T14:55:21.054Z,11.75
2022-12-23T14:57:38.497Z,12.90
2022-12-23T15:00:05.591Z,11.82
2022-12-23T15:02:36.695Z,12.57
2022-12-23T15:05:03.783Z,12.43
2022-12-23T15:07:33.115Z,12.13
2022-12-23T15:10:07.440Z,12.20
2022-12-23T15:12:35.939Z,12.23
2022-12-23T15:15:14.127Z,11.77
2022-12-23T15:17:40.436Z,12.23
2022-12-23T15:20:09.620Z,11.98
2022-12-23T15:22:36.479Z,12.35
2022-12-23T15:25:04.326Z,11.93
2022-12-23T15:27:33.334Z,12.15
2022-12-23T15:29:59.811Z,13.15
2022-12-23T15:32:27.247Z,13.02
2022-12-23T15:34:57.169Z,13.73
2022-12-23T15:37:29.024Z,13.57
2022-12-23T15:40:03.408Z,13.55
2022-12-23T15:42:38.205Z,14.35
2022-12-23T15:45:22.750Z,13.98
2022-12-23T15:47:49.823Z,15.25
2022-12-23T15:50:17.087Z,12.90
2022-12-23T15:52:44.959Z,12.63
2022-12-23T15:55:15.273Z,12.48
2022-12-23T15:57:49.569Z,13.35
2022-12-23T16:00:21.423Z,12.50
2022-12-23T16:03:00.221Z,11.82
2022-12-23T16:05:31.774Z,14.23
2022-12-23T16:08:12.004Z,13.25
2022-12-23T16:10:38.696Z,11.77
2022-12-23T16:13:05.036Z,13.98
2022-12-23T16:15:32.443Z,11.95
2022-12-23T16:18:25.658Z,13.23
2022-12-23T16:20:53.697Z,17.40
2022-12-23T16:23:20.713Z,18.77
2022-12-23T16:25:50.365Z,17.00
2022-12-23T16:28:22.851Z,17.00
2022-12-23T16:30:51.540Z,14.35
2022-12-23T16:33:20.695Z,12.48
2022-12-23T16:35:47.081Z,13.05
2022-12-23T16:38:23.853Z,12.88
2022-12-23T16:40:51.741Z,13.50
2022-12-23T16:43:18.755Z,17.15
2022-12-23T16:45:45.642Z,16.27
2022-12-23T16:48:30.784Z,18.35
2022-12-23T16:50:57.891Z,16.23
2022-12-23T16:53:24.304Z,16.13
2022-12-23T16:55:55.265Z,16.52
2022-12-23T16:58:24.784Z,18.27
2022-12-23T17:00:51.526Z,14.65
2022-12-23T17:03:19.038Z,13.48
2022-12-23T17:05:46.139Z,12.77
2022-12-23T17:08:12.754Z,12.38
2022-12-23T17:10:39.681Z,14.20
2022-12-23T17:13:06.011Z,13.45
2022-12-23T17:15:32.334Z,11.80
2022-12-23T17:17:58.650Z,11.70
2022-12-23T17:20:25.018Z,11.65
2022-12-23T17:22:53.436Z,11.07
2022-12-23T17:25:26.774Z,11.35
2022-12-23T17:27:55.459Z,12.48
2022-12-23T17:30:23.002Z,13.88
2022-12-23T17:32:55.289Z,14.55
2022-12-23T17:35:21.789Z,15.35
2022-12-23T17:37:48.373Z,15.95
2022-12-23T17:40:15.621Z,16.33
2022-12-23T17:42:42.543Z,16.65
2022-12-23T17:45:37.423Z,25.48
2022-12-23T17:48:03.852Z,17.73
2022-12-23T17:50:30.910Z,20.40
2022-12-23T17:52:57.255Z,20.48
2022-12-23T17:55:24.421Z,21.90
2022-12-23T17:57:51.635Z,37.05
2022-12-23T18:00:25.304Z,40.13
2022-12-23T18:02:58.078Z,18.13
2022-12-23T18:05:26.051Z,17.25
2022-12-23T18:07:53.059Z,13.77
2022-12-23T18:10:21.329Z,13.27
2022-12-23T18:12:49.442Z,12.40
2022-12-23T18:15:20.271Z,12.73
2022-12-23T18:20:17.977Z,10.98
2022-12-23T18:22:45.942Z,9.85
2022-12-23T18:25:16.734Z,9.32
2022-12-23T18:27:43.278Z,9.77
2022-12-23T18:30:09.825Z,8.80
2022-12-23T18:32:36.147Z,8.80
2022-12-23T18:35:04.116Z,9.73
2022-12-23T18:37:30.636Z,7.18
2022-12-23T18:39:56.974Z,7.68
2022-12-23T18:42:23.300Z,7.55
2022-12-23T18:44:49.676Z,6.93
2022-12-23T18:47:16.017Z,7.18
2022-12-23T18:49:42.416Z,8.35
2022-12-23T18:52:12.531Z,7.50
2022-12-23T18:54:39.782Z,7.88
2022-12-23T18:57:06.179Z,6.70
2022-12-23T18:59:34.217Z,10.48
2022-12-23T19:02:00.773Z,10.23
2022-12-23T19:04:27.285Z,8.43
2022-12-23T19:06:54.257Z,7.70
2022-12-23T19:09:21.715Z,6.75
2022-12-23T19:11:48.961Z,6.55
2022-12-23T19:14:29.230Z,6.95
2022-12-23T19:16:55.933Z,6.40
2022-12-23T19:19:22.535Z,7.35
2022-12-23T19:21:49.038Z,6.78
2022-12-23T19:24:15.388Z,7.20
2022-12-23T19:26:41.803Z,7.53
2022-12-23T19:29:08.279Z,7.00
2022-12-23T19:31:34.648Z,6.55
2022-12-23T19:34:01.594Z,7.03
2022-12-23T19:36:28.092Z,6.45
2022-12-23T19:38:55.610Z,6.03
2022-12-23T19:41:21.919Z,6.93
2022-12-23T19:43:48.264Z,8.23
2022-12-23T19:46:15.287Z,5.88
2022-12-23T19:48:41.719Z,6.88
2022-12-23T19:51:09.740Z,6.22
2022-12-23T19:53:36.823Z,7.18
2022-12-23T19:56:15.959Z,5.05
2022-12-23T19:58:43.749Z,5.78
2022-12-23T20:01:17.877Z,9.50
2022-12-23T20:03:45.468Z,9.23
2022-12-23T20:06:15.032Z,16.02
2022-12-23T20:08:42.702Z,9.50
2022-12-23T20:11:13.037Z,9.32
2022-12-23T20:13:39.365Z,12.45
2022-12-23T20:16:06.591Z,8.90
2022-12-23T20:18:33.111Z,9.30
2022-12-23T20:21:00.891Z,10.40
2022-12-23T20:23:28.584Z,10.90
2022-12-23T20:25:55.138Z,18.48
2022-12-23T20:28:21.565Z,9.70
2022-12-23T20:30:48.339Z,5.65
2022-12-23T20:33:15.639Z,6.45
2022-12-23T20:35:42.034Z,6.47
2022-12-23T20:38:08.461Z,5.65
2022-12-23T20:40:34.795Z,6.38
2022-12-23T20:43:01.121Z,6.40
2022-12-23T20:45:28.915Z,9.63
2022-12-23T20:47:55.523Z,3.95
2022-12-23T20:50:22.483Z,5.60
2022-12-23T20:52:48.750Z,3.80
2022-12-23T20:55:15.423Z,4.90
2022-12-23T20:57:44.201Z,4.50
2022-12-23T21:00:10.892Z,4.47
2022-12-23T21:02:37.517Z,4.50
2022-12-23T21:05:03.985Z,4.80
2022-12-23T21:07:30.382Z,7.22
2022-12-23T21:09:56.725Z,5.03
2022-12-23T21:12:23.740Z,4.03
2022-12-23T21:14:50.209Z,4.43
2022-12-23T21:17:17.924Z,4.63
2022-12-23T21:19:44.885Z,3.90
2022-12-23T21:22:11.301Z,4.38
2022-12-23T21:24:38.186Z,3.50
2022-12-23T21:27:04.708Z,4.40
2022-12-23T21:29:31.228Z,4.72
2022-12-23T21:31:59.228Z,4.03
2022-12-23T21:34:25.900Z,4.50
2022-12-23T21:36:53.423Z,3.60
2022-12-23T21:39:19.929Z,4.38
2022-12-23T21:41:46.332Z,4.57
2022-12-23T21:44:15.784Z,3.42
2022-12-23T21:46:42.269Z,3.15
2022-12-23T21:49:09.598Z,5.07
2022-12-23T21:51:40.779Z,6.00
2022-12-23T21:54:08.375Z,3.13
2022-12-23T21:56:35.136Z,4.38
2022-12-23T21:59:03.738Z,3.83
2022-12-23T22:01:30.745Z,3.92
2022-12-23T22:03:57.238Z,3.55
2022-12-23T22:06:28.344Z,3.40
2022-12-23T22:08:54.923Z,3.90
2022-12-23T22:11:22.946Z,4.13
2022-12-23T22:13:49.557Z,5.25
2022-12-23T22:16:20.815Z,5.07
2022-12-23T22:18:47.787Z,5.32
2022-12-23T22:21:15.993Z,9.23
2022-12-23T22:23:42.803Z,4.47
2022-12-23T22:26:11.870Z,6.25
2022-12-23T22:28:38.779Z,5.38
2022-12-23T22:31:28.325Z,5.18
2022-12-23T22:33:54.714Z,6.35
2022-12-23T22:36:21.072Z,6.75
2022-12-23T22:38:51.843Z,9.23
2022-12-23T22:41:18.293Z,7.55
2022-12-23T22:43:44.697Z,5.95
2022-12-23T22:46:11.148Z,5.68
2022-12-23T22:48:38.011Z,5.70
2022-12-23T22:51:05.279Z,5.00
2022-12-23T22:53:32.273Z,5.88
2022-12-23T22:55:59.484Z,6.70
2022-12-23T22:58:26.675Z,5.38
2022-12-23T23:00:53.795Z,4.60
2022-12-23T23:03:20.279Z,4.78
2022-12-23T23:06:03.952Z,4.90
2022-12-23T23:08:30.707Z,5.40
2022-12-23T23:10:58.119Z,4.30
2022-12-23T23:13:25.179Z,4.50
2022-12-23T23:15:51.474Z,4.78
2022-12-23T23:18:18.236Z,4.70
2022-12-23T23:20:44.908Z,3.60
2022-12-23T23:23:11.381Z,4.32
2022-12-23T23:25:37.802Z,4.50
2022-12-23T23:28:04.360Z,3.63
2022-12-23T23:30:30.954Z,4.03
2022-12-23T23:32:57.260Z,3.85
2022-12-23T23:35:23.731Z,3.88
2022-12-23T23:37:50.147Z,3.78
2022-12-23T23:40:16.479Z,4.40
2022-12-23T23:42:42.892Z,4.35
2022-12-23T23:45:09.456Z,3.75
2022-12-23T23:47:35.859Z,4.25
2022-12-23T23:50:02.599Z,3.70
2022-12-23T23:52:29.159Z,4.95
2022-12-23T23:54:55.572Z,4.32
2022-12-23T23:57:22.152Z,4.22
2022-12-23T23:59:48.572Z,5.10
